createdAt,value
2017-12-23T00:00:49.141Z,7.51
2017-12-23T00:01:57.744Z,7.62
2017-12-23T00:03:06.340Z,7.55
2017-12-23T00:04:14.952Z,7.64
2017-12-23T00:05:23.555Z,7.64
2017-12-23T00:06:32.150Z,7.56
2017-12-23T00:07:40.757Z,7.61
2017-12-23T00:08:49.366Z,7.62
2017-12-23T00:09:57.962Z,7.59
2017-12-23T00:11:06.566Z,7.64
2017-12-23T00:12:15.180Z,7.61
2017-12-23T00:13:23.772Z,7.62
2017-12-23T00:14:32.371Z,7.78
2017-12-23T00:15:40.978Z,7.72
2017-12-23T00:16:49.561Z,7.75
2017-12-23T00:17:58.172Z,7.75
2017-12-23T00:19:06.771Z,7.74
2017-12-23T00:20:15.382Z,7.75
2017-12-23T00:21:23.991Z,7.74
2017-12-23T00:22:32.586Z,7.8
2017-12-23T00:23:41.187Z,7.74
2017-12-23T00:24:49.799Z,7.77
2017-12-23T00:25:58.400Z,7.67
2017-12-23T00:27:06.998Z,7.69
2017-12-23T00:28:15.611Z,7.67
2017-12-23T00:29:24.212Z,7.66
2017-12-23T00:30:32.822Z,7.72
2017-12-23T00:31:41.416Z,7.78
2017-12-23T00:32:50.022Z,7.78
2017-12-23T00:33:58.635Z,7.74
2017-12-23T00:35:07.232Z,7.75
2017-12-23T00:36:16.350Z,7.72
2017-12-23T00:37:24.960Z,7.75
2017-12-23T00:38:33.560Z,7.64
2017-12-23T00:39:42.156Z,7.72
2017-12-23T00:40:50.769Z,7.69
2017-12-23T00:41:59.379Z,7.75
2017-12-23T00:43:07.964Z,7.69
2017-12-23T00:44:16.575Z,7.7
2017-12-23T00:45:25.173Z,7.72
2017-12-23T00:46:33.783Z,7.7
2017-12-23T00:47:42.384Z,7.75
2017-12-23T00:48:50.979Z,7.69
2017-12-23T00:49:59.594Z,7.66
2017-12-23T00:51:08.196Z,7.7
2017-12-23T00:52:16.790Z,7.74
2017-12-23T00:53:25.657Z,7.7
2017-12-23T00:54:34.265Z,7.81
2017-12-23T00:55:42.860Z,7.78
2017-12-23T00:56:51.465Z,7.84
2017-12-23T00:58:00.086Z,7.7
2017-12-23T00:59:08.681Z,7.72
2017-12-23T01:00:17.287Z,7.72
2017-12-23T01:01:25.875Z,7.72
2017-12-23T01:02:34.486Z,7.77
2017-12-23T01:03:43.092Z,7.84
2017-12-23T01:04:51.684Z,7.81
2017-12-23T01:06:00.292Z,7.81
2017-12-23T01:07:09.166Z,7.78
2017-12-23T01:08:17.762Z,7.81
2017-12-23T01:09:26.366Z,7.78
2017-12-23T01:10:34.982Z,7.77
2017-12-23T01:11:43.581Z,7.84
2017-12-23T01:12:52.181Z,7.87
2017-12-23T01:14:00.785Z,7.85
2017-12-23T01:15:09.393Z,7.78
2017-12-23T01:16:18.007Z,7.72
2017-12-23T01:17:26.597Z,7.81
2017-12-23T01:18:35.455Z,7.74
2017-12-23T01:19:44.071Z,7.78
2017-12-23T01:20:52.931Z,7.75
2017-12-23T01:22:01.526Z,7.78
2017-12-23T01:23:10.397Z,7.83
2017-12-23T01:24:18.998Z,7.78
2017-12-23T01:25:27.851Z,7.74
2017-12-23T01:26:36.462Z,7.75
2017-12-23T01:27:45.075Z,7.81
2017-12-23T01:28:53.672Z,7.81
2017-12-23T01:30:02.266Z,7.74
2017-12-23T01:31:10.859Z,7.84
2017-12-23T01:32:19.476Z,7.87
2017-12-23T01:33:28.075Z,7.8
2017-12-23T01:34:36.671Z,7.87
2017-12-23T01:35:45.285Z,7.8
2017-12-23T01:36:53.889Z,7.88
2017-12-23T01:38:02.485Z,7.84
2017-12-23T01:39:11.093Z,7.91
2017-12-23T01:40:19.699Z,7.78
2017-12-23T01:41:28.293Z,7.81
2017-12-23T01:42:37.162Z,7.84
2017-12-23T01:43:45.756Z,7.88
2017-12-23T01:44:54.379Z,7.83
2017-12-23T01:46:03.247Z,7.83
2017-12-23T01:47:11.837Z,7.83
2017-12-23T01:48:20.446Z,7.83
2017-12-23T01:49:29.053Z,7.81
2017-12-23T01:50:37.646Z,7.84
2017-12-23T01:51:46.510Z,7.85
2017-12-23T01:52:55.186Z,7.81
2017-12-23T01:54:03.717Z,7.81
2017-12-23T01:55:12.315Z,7.81
2017-12-23T01:56:21.186Z,7.8
2017-12-23T01:57:29.783Z,7.78
2017-12-23T01:58:38.376Z,7.88
2017-12-23T01:59:46.992Z,7.84
2017-12-23T02:00:55.593Z,7.9
2017-12-23T02:02:04.187Z,7.83
2017-12-23T02:03:12.798Z,7.88
2017-12-23T02:04:21.402Z,7.88
2017-12-23T02:05:29.993Z,7.88
2017-12-23T02:06:38.603Z,7.87
2017-12-23T02:07:47.214Z,7.9
2017-12-23T02:08:55.808Z,7.9
2017-12-23T02:10:04.412Z,8.03
2017-12-23T02:11:13.023Z,7.87
2017-12-23T02:12:21.614Z,7.96
2017-12-23T02:13:30.223Z,8.05
2017-12-23T02:14:39.072Z,8.01
2017-12-23T02:15:47.682Z,7.98
2017-12-23T02:16:56.287Z,8.03
2017-12-23T02:18:04.885Z,7.99
2017-12-23T02:19:13.492Z,7.96
2017-12-23T02:20:22.109Z,8.01
2017-12-23T02:21:30.698Z,8.03
2017-12-23T02:22:39.575Z,8.03
2017-12-23T02:23:48.187Z,7.98
2017-12-23T02:24:56.786Z,8.01
2017-12-23T02:26:05.385Z,8.05
2017-12-23T02:27:13.988Z,8.02
2017-12-23T02:28:22.590Z,8.09
2017-12-23T02:29:31.207Z,8.06
2017-12-23T02:30:39.799Z,8.11
2017-12-23T02:31:48.406Z,8.06
2017-12-23T02:32:57.013Z,8.09
2017-12-23T02:34:05.609Z,8.08
2017-12-23T02:35:14.206Z,8.08
2017-12-23T02:36:22.817Z,8.02
2017-12-23T02:37:31.420Z,8.06
2017-12-23T02:38:40.011Z,8.09
2017-12-23T02:39:48.629Z,8.13
2017-12-23T02:40:57.227Z,8.05
2017-12-23T02:42:06.119Z,8.13
2017-12-23T02:43:14.976Z,8.08
2017-12-23T02:44:23.574Z,8.21
2017-12-23T02:45:32.189Z,8.16
2017-12-23T02:46:40.790Z,8.16
2017-12-23T02:47:49.380Z,8.18
2017-12-23T02:48:57.999Z,8.21
2017-12-23T02:50:06.865Z,8.17
2017-12-23T02:51:15.462Z,8.14
2017-12-23T02:52:24.071Z,8.14
2017-12-23T02:53:32.682Z,8.17
2017-12-23T02:54:41.536Z,8.31
2017-12-23T02:55:50.141Z,8.27
2017-12-23T02:56:58.737Z,8.24
2017-12-23T02:58:07.353Z,8.28
2017-12-23T02:59:15.956Z,8.26
2017-12-23T03:00:24.546Z,8.27
2017-12-23T03:01:33.158Z,8.24
2017-12-23T03:02:41.765Z,8.34
2017-12-23T03:03:50.357Z,8.27
2017-12-23T03:04:58.962Z,8.35
2017-12-23T03:06:07.580Z,8.31
2017-12-23T03:07:16.430Z,8.35
2017-12-23T03:08:25.031Z,8.36
2017-12-23T03:09:33.643Z,8.45
2017-12-23T03:10:42.242Z,8.39
2017-12-23T03:11:50.851Z,8.41
2017-12-23T03:12:59.441Z,8.39
2017-12-23T03:14:08.044Z,8.38
2017-12-23T03:15:16.659Z,8.41
2017-12-23T03:16:25.254Z,8.41
2017-12-23T03:17:33.853Z,8.42
2017-12-23T03:18:42.469Z,8.46
2017-12-23T03:19:51.063Z,8.39
2017-12-23T03:20:59.656Z,8.45
2017-12-23T03:22:08.274Z,8.39
2017-12-23T03:23:16.874Z,8.44
2017-12-23T03:24:25.468Z,8.49
2017-12-23T03:25:34.075Z,8.45
2017-12-23T03:26:42.677Z,8.45
2017-12-23T03:27:51.290Z,8.46
2017-12-23T03:28:59.885Z,8.49
2017-12-23T03:30:08.485Z,8.44
2017-12-23T03:31:17.098Z,8.44
2017-12-23T03:32:25.699Z,8.42
2017-12-23T03:33:34.289Z,8.46
2017-12-23T03:34:42.904Z,8.46
2017-12-23T03:35:51.511Z,8.52
2017-12-23T03:37:00.108Z,8.44
2017-12-23T03:38:08.714Z,8.41
2017-12-23T03:39:17.324Z,8.42
2017-12-23T03:40:25.927Z,8.44
2017-12-23T03:41:34.785Z,8.54
2017-12-23T03:42:43.375Z,8.46
2017-12-23T03:43:51.988Z,8.49
2017-12-23T03:45:00.596Z,8.46
2017-12-23T03:46:09.185Z,8.42
2017-12-23T03:47:17.794Z,8.49
2017-12-23T03:48:26.406Z,8.45
2017-12-23T03:49:34.994Z,8.49
2017-12-23T03:50:43.602Z,8.46
2017-12-23T03:51:52.213Z,8.49
2017-12-23T03:53:00.812Z,8.49
2017-12-23T03:54:09.419Z,8.59
2017-12-23T03:55:18.026Z,8.56
2017-12-23T03:56:26.622Z,8.54
2017-12-23T03:57:35.223Z,8.6
2017-12-23T03:58:43.834Z,8.59
2017-12-23T03:59:52.437Z,8.59
2017-12-23T04:01:01.030Z,8.61
2017-12-23T04:02:09.644Z,8.6
2017-12-23T04:03:18.251Z,8.56
2017-12-23T04:04:26.842Z,8.6
2017-12-23T04:05:35.451Z,8.6
2017-12-23T04:06:44.060Z,8.6
2017-12-23T04:07:52.653Z,8.61
2017-12-23T04:09:01.258Z,8.6
2017-12-23T04:10:09.853Z,8.63
2017-12-23T04:11:18.470Z,8.66
2017-12-23T04:12:27.077Z,8.57
2017-12-23T04:13:35.669Z,8.66
2017-12-23T04:14:44.278Z,8.56
2017-12-23T04:15:52.885Z,8.61
2017-12-23T04:17:01.477Z,8.64
2017-12-23T04:18:10.077Z,8.61
2017-12-23T04:19:18.694Z,8.63
2017-12-23T04:20:27.288Z,8.64
2017-12-23T04:21:35.891Z,8.69
2017-12-23T04:22:44.498Z,8.68
2017-12-23T04:23:53.099Z,8.63
2017-12-23T04:25:01.971Z,8.66
2017-12-23T04:26:10.565Z,8.69
2017-12-23T04:27:19.168Z,8.69
2017-12-23T04:28:27.778Z,8.79
2017-12-23T04:29:36.395Z,8.74
2017-12-23T04:30:44.980Z,8.75
2017-12-23T04:31:53.595Z,8.77
2017-12-23T04:33:02.196Z,8.75
2017-12-23T04:34:10.786Z,8.77
2017-12-23T04:35:19.403Z,8.71
2017-12-23T04:36:28.523Z,8.71
2017-12-23T04:37:37.119Z,8.71
2017-12-23T04:38:45.723Z,8.72
2017-12-23T04:39:54.328Z,8.71
2017-12-23T04:41:02.941Z,8.71
2017-12-23T04:42:11.539Z,8.71
2017-12-23T04:43:20.142Z,8.72
2017-12-23T04:44:28.748Z,8.71
2017-12-23T04:45:37.351Z,8.89
2017-12-23T04:46:45.940Z,8.87
2017-12-23T04:47:54.557Z,8.84
2017-12-23T04:49:03.164Z,8.78
2017-12-23T04:50:11.758Z,8.93
2017-12-23T04:51:20.368Z,8.86
2017-12-23T04:52:28.974Z,8.81
2017-12-23T04:53:37.576Z,8.82
2017-12-23T04:54:46.176Z,8.84
2017-12-23T04:55:54.770Z,8.92
2017-12-23T04:57:03.385Z,8.87
2017-12-23T04:58:11.990Z,8.92
2017-12-23T04:59:20.583Z,8.87
2017-12-23T05:00:29.191Z,8.84
2017-12-23T05:01:37.799Z,8.9
2017-12-23T05:02:46.390Z,8.95
2017-12-23T05:03:54.997Z,8.87
2017-12-23T05:05:03.605Z,8.84
2017-12-23T05:06:12.456Z,8.81
2017-12-23T05:07:21.058Z,8.78
2017-12-23T05:08:29.659Z,8.82
2017-12-23T05:09:38.267Z,8.89
2017-12-23T05:10:46.872Z,8.84
2017-12-23T05:11:55.467Z,8.82
2017-12-23T05:13:04.071Z,8.84
2017-12-23T05:14:12.690Z,8.84
2017-12-23T05:15:21.278Z,8.82
2017-12-23T05:16:29.888Z,8.78
2017-12-23T05:17:38.499Z,8.82
2017-12-23T05:18:47.094Z,8.87
2017-12-23T05:19:55.690Z,8.86
2017-12-23T05:21:04.305Z,8.79
2017-12-23T05:22:12.906Z,8.84
2017-12-23T05:23:21.514Z,8.81
2017-12-23T05:24:30.110Z,8.79
2017-12-23T05:25:38.711Z,8.82
2017-12-23T05:26:47.588Z,8.81
2017-12-23T05:27:56.184Z,8.89
2017-12-23T05:29:04.780Z,8.9
2017-12-23T05:30:13.397Z,8.84
2017-12-23T05:31:21.996Z,8.84
2017-12-23T05:32:30.858Z,8.9
2017-12-23T05:33:39.471Z,8.89
2017-12-23T05:34:48.077Z,8.81
2017-12-23T05:35:56.677Z,8.86
2017-12-23T05:37:05.544Z,8.77
2017-12-23T05:38:14.144Z,8.89
2017-12-23T05:39:22.752Z,8.86
2017-12-23T05:40:31.354Z,8.86
2017-12-23T05:41:39.948Z,8.86
2017-12-23T05:42:48.563Z,8.84
2017-12-23T05:43:57.168Z,8.77
2017-12-23T05:45:05.766Z,8.77
2017-12-23T05:46:14.375Z,8.81
2017-12-23T05:47:22.986Z,8.72
2017-12-23T05:48:31.836Z,8.74
2017-12-23T05:49:40.445Z,8.72
2017-12-23T05:50:49.058Z,8.75
2017-12-23T05:51:57.655Z,8.81
2017-12-23T05:53:06.258Z,8.78
2017-12-23T05:54:14.872Z,8.86
2017-12-23T05:55:23.469Z,8.72
2017-12-23T05:56:32.072Z,8.79
2017-12-23T05:57:40.686Z,8.74
2017-12-23T05:58:49.289Z,8.71
2017-12-23T05:59:57.881Z,8.74
2017-12-23T06:01:06.772Z,8.75
2017-12-23T06:02:15.376Z,8.75
2017-12-23T06:03:23.969Z,8.79
2017-12-23T06:04:32.580Z,8.77
2017-12-23T06:05:41.198Z,8.71
2017-12-23T06:06:49.797Z,8.72
2017-12-23T06:07:58.396Z,8.79
2017-12-23T06:09:06.994Z,8.78
2017-12-23T06:10:15.605Z,8.72
2017-12-23T06:11:24.214Z,8.75
2017-12-23T06:12:33.324Z,8.74
2017-12-23T06:13:42.191Z,8.77
2017-12-23T06:14:50.799Z,8.74
2017-12-23T06:15:59.393Z,8.71
2017-12-23T06:17:07.998Z,8.71
2017-12-23T06:18:16.610Z,8.71
2017-12-23T06:19:25.202Z,8.61
2017-12-23T06:20:33.800Z,8.61
2017-12-23T06:21:42.406Z,8.72
2017-12-23T06:22:51.013Z,8.69
2017-12-23T06:23:59.621Z,8.72
2017-12-23T06:25:08.216Z,8.6
2017-12-23T06:26:16.823Z,8.69
2017-12-23T06:27:25.700Z,8.61
2017-12-23T06:28:34.290Z,8.6
2017-12-23T06:29:42.898Z,8.63
2017-12-23T06:30:51.512Z,8.59
2017-12-23T06:32:00.111Z,8.56
2017-12-23T06:33:08.708Z,8.63
2017-12-23T06:34:17.587Z,8.56
2017-12-23T06:35:26.186Z,8.53
2017-12-23T06:36:34.792Z,8.56
2017-12-23T06:37:43.389Z,8.49
2017-12-23T06:38:51.992Z,8.63
2017-12-23T06:40:00.609Z,8.53
2017-12-23T06:41:09.210Z,8.52
2017-12-23T06:42:17.804Z,8.56
2017-12-23T06:43:26.420Z,8.53
2017-12-23T06:44:35.022Z,8.45
2017-12-23T06:45:43.615Z,8.53
2017-12-23T06:46:52.230Z,8.52
2017-12-23T06:48:01.094Z,8.5
2017-12-23T06:49:09.684Z,8.5
2017-12-23T06:50:18.554Z,8.53
2017-12-23T06:51:27.152Z,8.53
2017-12-23T06:52:35.765Z,8.52
2017-12-23T06:53:44.365Z,8.46
2017-12-23T06:54:53.215Z,8.44
2017-12-23T06:56:01.838Z,8.49
2017-12-23T06:57:10.707Z,8.44
2017-12-23T06:58:19.297Z,8.49
2017-12-23T06:59:27.907Z,8.53
2017-12-23T07:00:36.516Z,8.46
2017-12-23T07:01:45.109Z,8.35
2017-12-23T07:02:53.713Z,8.52
2017-12-23T07:04:02.331Z,8.38
2017-12-23T07:05:10.926Z,8.45
2017-12-23T07:06:19.530Z,8.36
2017-12-23T07:07:28.121Z,8.46
2017-12-23T07:08:36.728Z,8.35
2017-12-23T07:09:45.339Z,8.46
2017-12-23T07:10:53.929Z,8.49
2017-12-23T07:12:02.532Z,8.45
2017-12-23T07:13:11.148Z,8.42
2017-12-23T07:14:20.003Z,8.46
2017-12-23T07:15:28.605Z,8.44
2017-12-23T07:16:37.222Z,8.46
2017-12-23T07:17:45.817Z,8.46
2017-12-23T07:18:54.416Z,8.42
2017-12-23T07:20:03.024Z,8.45
2017-12-23T07:21:11.627Z,8.39
2017-12-23T07:22:20.242Z,8.39
2017-12-23T07:23:28.835Z,8.44
2017-12-23T07:24:37.435Z,8.42
2017-12-23T07:25:46.049Z,8.36
2017-12-23T07:26:54.646Z,8.41
2017-12-23T07:28:03.244Z,8.44
2017-12-23T07:29:12.113Z,8.42
2017-12-23T07:30:20.714Z,8.42
2017-12-23T07:31:29.315Z,8.5
2017-12-23T07:32:37.924Z,8.42
2017-12-23T07:33:46.527Z,8.44
2017-12-23T07:34:55.130Z,8.5
2017-12-23T07:36:03.726Z,8.44
2017-12-23T07:37:12.324Z,8.42
2017-12-23T07:38:20.936Z,8.41
2017-12-23T07:39:29.537Z,8.38
2017-12-23T07:40:38.127Z,8.41
2017-12-23T07:41:46.748Z,8.36
2017-12-23T07:42:55.350Z,8.41
2017-12-23T07:44:03.946Z,8.45
2017-12-23T07:45:12.554Z,8.44
2017-12-23T07:46:21.168Z,8.45
2017-12-23T07:47:29.762Z,8.5
2017-12-23T07:48:38.366Z,8.42
2017-12-23T07:49:46.977Z,8.42
2017-12-23T07:50:55.572Z,8.45
2017-12-23T07:52:04.176Z,8.53
2017-12-23T07:53:12.790Z,8.46
2017-12-23T07:54:21.385Z,8.53
2017-12-23T07:55:29.983Z,8.45
2017-12-23T07:56:38.598Z,8.42
2017-12-23T07:57:47.195Z,8.46
2017-12-23T07:58:55.791Z,8.52
2017-12-23T08:00:04.667Z,8.42
2017-12-23T08:01:13.277Z,8.54
2017-12-23T08:02:21.867Z,8.41
2017-12-23T08:03:30.477Z,8.44
2017-12-23T08:04:39.076Z,8.5
2017-12-23T08:05:47.693Z,8.49
2017-12-23T08:06:56.553Z,8.46
2017-12-23T08:08:05.410Z,8.45
2017-12-23T08:09:14.022Z,8.52
2017-12-23T08:10:22.625Z,8.53
2017-12-23T08:11:31.221Z,8.54
2017-12-23T08:12:39.831Z,8.57
2017-12-23T08:13:48.440Z,8.57
2017-12-23T08:14:57.033Z,8.53
2017-12-23T08:16:05.638Z,8.63
2017-12-23T08:17:14.255Z,8.61
2017-12-23T08:18:22.850Z,8.56
2017-12-23T08:19:31.454Z,8.63
2017-12-23T08:20:40.311Z,8.59
2017-12-23T08:21:48.920Z,8.61
2017-12-23T08:22:57.529Z,8.57
2017-12-23T08:24:06.122Z,8.61
2017-12-23T08:25:14.727Z,8.61
2017-12-23T08:26:23.345Z,8.61
2017-12-23T08:27:31.935Z,8.6
2017-12-23T08:28:40.540Z,8.6
2017-12-23T08:29:49.155Z,8.61
2017-12-23T08:30:57.751Z,8.6
2017-12-23T08:32:06.348Z,8.64
2017-12-23T08:33:14.959Z,8.71
2017-12-23T08:34:23.565Z,8.61
2017-12-23T08:35:32.176Z,8.74
2017-12-23T08:36:40.769Z,8.59
2017-12-23T08:37:49.370Z,8.74
2017-12-23T08:38:57.987Z,8.69
2017-12-23T08:40:06.585Z,8.72
2017-12-23T08:41:15.183Z,8.75
2017-12-23T08:42:23.794Z,8.78
2017-12-23T08:43:32.398Z,8.75
2017-12-23T08:44:40.984Z,8.81
2017-12-23T08:45:49.599Z,8.72
2017-12-23T08:46:58.246Z,8.72
2017-12-23T08:48:06.813Z,8.74
2017-12-23T08:49:15.413Z,8.74
2017-12-23T08:50:24.005Z,8.69
2017-12-23T08:51:32.624Z,8.78
2017-12-23T08:52:41.226Z,8.82
2017-12-23T08:53:49.822Z,8.84
2017-12-23T08:54:58.701Z,8.89
2017-12-23T08:56:07.307Z,8.87
2017-12-23T08:57:15.900Z,8.95
2017-12-23T08:58:24.511Z,8.87
2017-12-23T08:59:33.117Z,8.92
2017-12-23T09:00:41.714Z,8.95
2017-12-23T09:01:50.326Z,8.92
2017-12-23T09:02:59.178Z,8.93
2017-12-23T09:04:07.795Z,8.97
2017-12-23T09:05:16.402Z,8.9
2017-12-23T09:06:24.996Z,8.92
2017-12-23T09:07:33.610Z,8.9
2017-12-23T09:08:42.219Z,8.93
2017-12-23T09:09:50.811Z,9.02
2017-12-23T09:10:59.419Z,8.99
2017-12-23T09:12:08.294Z,9.03
2017-12-23T09:13:17.149Z,8.99
2017-12-23T09:14:25.756Z,9
2017-12-23T09:15:34.629Z,9
2017-12-23T09:16:43.224Z,9.02
2017-12-23T09:17:51.836Z,9.15
2017-12-23T09:19:00.428Z,9.02
2017-12-23T09:20:09.036Z,9.11
2017-12-23T09:21:17.650Z,9.09
2017-12-23T09:22:26.245Z,9.09
2017-12-23T09:23:34.857Z,9.18
2017-12-23T09:24:43.464Z,9.09
2017-12-23T09:25:52.064Z,9.03
2017-12-23T09:27:00.665Z,9.09
2017-12-23T09:28:09.276Z,9.19
2017-12-23T09:29:17.886Z,9.16
2017-12-23T09:30:26.479Z,9.21
2017-12-23T09:31:35.085Z,9.21
2017-12-23T09:32:43.689Z,9.24
2017-12-23T09:33:52.310Z,9.29
2017-12-23T09:35:00.904Z,9.31
2017-12-23T09:36:09.503Z,9.26
2017-12-23T09:37:18.114Z,9.27
2017-12-23T09:38:26.720Z,9.34
2017-12-23T09:39:35.311Z,9.27
2017-12-23T09:40:43.926Z,9.3
2017-12-23T09:41:52.533Z,9.31
2017-12-23T09:43:01.128Z,9.34
2017-12-23T09:44:09.735Z,9.36
2017-12-23T09:45:18.341Z,9.29
2017-12-23T09:46:26.936Z,9.34
2017-12-23T09:47:35.540Z,9.4
2017-12-23T09:48:44.158Z,9.34
2017-12-23T09:49:52.747Z,9.31
2017-12-23T09:51:01.356Z,9.4
2017-12-23T09:52:09.968Z,9.34
2017-12-23T09:53:18.571Z,9.33
2017-12-23T09:54:27.161Z,9.31
2017-12-23T09:55:35.780Z,9.37
2017-12-23T09:56:44.384Z,9.36
2017-12-23T09:57:52.978Z,9.31
2017-12-23T09:59:01.592Z,9.29
2017-12-23T10:00:10.197Z,9.33
2017-12-23T10:01:18.804Z,9.39
2017-12-23T10:02:27.401Z,9.31
2017-12-23T10:03:35.996Z,9.33
2017-12-23T10:04:44.611Z,9.33
2017-12-23T10:05:53.211Z,9.3
2017-12-23T10:07:01.810Z,9.3
2017-12-23T10:08:10.687Z,9.29
2017-12-23T10:09:19.292Z,9.37
2017-12-23T10:10:27.885Z,9.33
2017-12-23T10:11:36.496Z,9.33
2017-12-23T10:12:45.106Z,9.37
2017-12-23T10:13:53.701Z,9.36
2017-12-23T10:15:02.305Z,9.3
2017-12-23T10:16:10.901Z,9.34
2017-12-23T10:17:19.518Z,9.33
2017-12-23T10:18:28.126Z,9.36
2017-12-23T10:19:36.720Z,9.36
2017-12-23T10:20:45.329Z,9.37
2017-12-23T10:21:53.937Z,9.34
2017-12-23T10:23:02.536Z,9.36
2017-12-23T10:24:11.138Z,9.34
2017-12-23T10:25:19.754Z,9.36
2017-12-23T10:26:28.349Z,9.39
2017-12-23T10:27:36.949Z,9.36
2017-12-23T10:28:45.564Z,9.34
2017-12-23T10:29:54.163Z,9.33
2017-12-23T10:31:02.779Z,9.37
2017-12-23T10:32:11.371Z,9.42
2017-12-23T10:33:19.981Z,9.31
2017-12-23T10:34:28.594Z,9.31
2017-12-23T10:35:37.192Z,9.37
2017-12-23T10:36:45.792Z,9.36
2017-12-23T10:37:54.410Z,9.31
2017-12-23T10:39:03.004Z,9.33
2017-12-23T10:40:11.603Z,9.29
2017-12-23T10:41:20.219Z,9.31
2017-12-23T10:42:29.082Z,9.31
2017-12-23T10:43:37.933Z,9.31
2017-12-23T10:44:46.549Z,9.31
2017-12-23T10:45:55.157Z,9.33
2017-12-23T10:47:03.745Z,9.3
2017-12-23T10:48:12.361Z,9.34
2017-12-23T10:49:20.971Z,9.36
2017-12-23T10:50:29.567Z,9.4
2017-12-23T10:51:38.173Z,9.29
2017-12-23T10:52:46.791Z,9.37
2017-12-23T10:53:55.385Z,9.37
2017-12-23T10:55:03.989Z,9.36
2017-12-23T10:56:12.602Z,9.37
2017-12-23T10:57:21.204Z,9.34
2017-12-23T10:58:29.799Z,9.33
2017-12-23T10:59:38.404Z,9.36
2017-12-23T11:00:47.015Z,9.4
2017-12-23T11:01:55.885Z,9.31
2017-12-23T11:03:04.480Z,9.36
2017-12-23T11:04:13.091Z,9.36
2017-12-23T11:05:21.704Z,9.37
2017-12-23T11:06:30.302Z,9.34
2017-12-23T11:07:38.899Z,9.45
2017-12-23T11:08:47.512Z,9.42
2017-12-23T11:09:56.113Z,9.36
2017-12-23T11:11:04.707Z,9.31
2017-12-23T11:12:13.319Z,9.42
2017-12-23T11:13:21.927Z,9.36
2017-12-23T11:14:30.800Z,9.36
2017-12-23T11:15:39.396Z,9.37
2017-12-23T11:16:47.992Z,9.34
2017-12-23T11:17:56.611Z,9.45
2017-12-23T11:19:05.214Z,9.34
2017-12-23T11:20:13.813Z,9.37
2017-12-23T11:21:22.684Z,9.4
2017-12-23T11:22:31.551Z,9.45
2017-12-23T11:23:40.147Z,9.47
2017-12-23T11:24:49.020Z,9.44
2017-12-23T11:25:57.628Z,9.45
2017-12-23T11:27:06.224Z,9.51
2017-12-23T11:28:15.095Z,9.52
2017-12-23T11:29:23.691Z,9.47
2017-12-23T11:30:32.307Z,9.49
2017-12-23T11:31:40.916Z,9.49
2017-12-23T11:32:49.506Z,9.54
2017-12-23T11:33:58.115Z,9.51
2017-12-23T11:35:06.723Z,9.52
2017-12-23T11:36:15.318Z,9.51
2017-12-23T11:37:23.924Z,9.52
2017-12-23T11:38:32.539Z,9.49
2017-12-23T11:39:41.131Z,9.51
2017-12-23T11:40:49.738Z,9.52
2017-12-23T11:41:58.350Z,9.54
2017-12-23T11:43:06.948Z,9.54
2017-12-23T11:44:15.547Z,9.48
2017-12-23T11:45:24.422Z,9.51
2017-12-23T11:46:33.020Z,9.59
2017-12-23T11:47:41.619Z,9.49
2017-12-23T11:48:50.231Z,9.49
2017-12-23T11:49:58.847Z,9.62
2017-12-23T11:51:07.470Z,9.63
2017-12-23T11:52:16.317Z,9.58
2017-12-23T11:53:24.929Z,9.59
2017-12-23T11:54:33.522Z,9.59
2017-12-23T11:55:42.127Z,9.66
2017-12-23T11:56:50.745Z,9.63
2017-12-23T11:57:59.343Z,9.58
2017-12-23T11:59:07.950Z,9.62
2017-12-23T12:00:16.543Z,9.62
2017-12-23T12:01:25.155Z,9.59
2017-12-23T12:02:33.764Z,9.59
2017-12-23T12:03:42.360Z,9.63
2017-12-23T12:04:50.966Z,9.63
2017-12-23T12:05:59.583Z,9.63
2017-12-23T12:07:08.180Z,9.64
2017-12-23T12:08:16.775Z,9.62
2017-12-23T12:09:25.388Z,9.59
2017-12-23T12:10:33.986Z,9.64
2017-12-23T12:11:42.584Z,9.67
2017-12-23T12:12:51.190Z,9.63
2017-12-23T12:13:59.798Z,9.67
2017-12-23T12:15:08.417Z,9.64
2017-12-23T12:16:17.012Z,9.63
2017-12-23T12:17:25.619Z,9.62
2017-12-23T12:18:34.232Z,9.62
2017-12-23T12:19:42.831Z,9.66
2017-12-23T12:20:51.429Z,9.63
2017-12-23T12:22:00.047Z,9.63
2017-12-23T12:23:08.651Z,9.66
2017-12-23T12:24:17.246Z,9.69
2017-12-23T12:25:25.867Z,9.7
2017-12-23T12:26:34.732Z,9.73
2017-12-23T12:27:43.342Z,9.67
2017-12-23T12:28:51.940Z,9.73
2017-12-23T12:30:00.538Z,9.66
2017-12-23T12:31:09.152Z,9.67
2017-12-23T12:32:17.752Z,9.69
2017-12-23T12:33:26.352Z,9.59
2017-12-23T12:34:34.968Z,9.62
2017-12-23T12:35:43.578Z,9.63
2017-12-23T12:36:52.166Z,9.62
2017-12-23T12:38:00.783Z,9.7
2017-12-23T12:39:09.392Z,9.73
2017-12-23T12:40:17.980Z,9.64
2017-12-23T12:41:26.584Z,9.59
2017-12-23T12:42:35.184Z,9.73
2017-12-23T12:43:43.799Z,9.76
2017-12-23T12:44:52.405Z,9.72
2017-12-23T12:46:00.994Z,9.73
2017-12-23T12:47:09.604Z,9.8
2017-12-23T12:48:18.217Z,9.77
2017-12-23T12:49:26.811Z,9.73
2017-12-23T12:50:35.415Z,9.74
2017-12-23T12:51:44.027Z,9.77
2017-12-23T12:52:52.622Z,9.8
2017-12-23T12:54:01.224Z,9.77
2017-12-23T12:55:09.847Z,9.69
2017-12-23T12:56:18.439Z,9.72
2017-12-23T12:57:27.049Z,9.73
2017-12-23T12:58:35.642Z,9.73
2017-12-23T12:59:44.252Z,9.81
2017-12-23T13:00:52.867Z,9.73
2017-12-23T13:02:01.466Z,9.82
2017-12-23T13:03:10.331Z,9.8
2017-12-23T13:04:19.204Z,9.74
2017-12-23T13:05:27.804Z,9.8
2017-12-23T13:06:36.408Z,9.74
2017-12-23T13:07:45.025Z,9.76
2017-12-23T13:08:53.632Z,9.81
2017-12-23T13:10:02.223Z,9.8
2017-12-23T13:11:10.836Z,9.81
2017-12-23T13:12:19.436Z,9.84
2017-12-23T13:13:28.051Z,9.74
2017-12-23T13:14:36.647Z,9.77
2017-12-23T13:15:45.245Z,9.82
2017-12-23T13:16:53.861Z,9.72
2017-12-23T13:18:02.463Z,9.81
2017-12-23T13:19:11.062Z,9.74
2017-12-23T13:21:23.749Z,9.74
2017-12-23T13:22:32.359Z,9.73
2017-12-23T13:23:40.958Z,9.74
2017-12-23T13:24:49.567Z,9.73
2017-12-23T13:25:58.176Z,9.73
2017-12-23T13:27:06.783Z,9.76
2017-12-23T13:28:15.385Z,9.74
2017-12-23T13:29:23.984Z,9.77
2017-12-23T13:30:32.597Z,9.87
2017-12-23T13:31:41.465Z,9.77
2017-12-23T13:32:50.064Z,9.74
2017-12-23T13:33:58.676Z,9.85
2017-12-23T13:35:07.290Z,9.84
2017-12-23T13:36:15.885Z,9.74
2017-12-23T13:37:24.490Z,9.85
2017-12-23T13:38:33.109Z,9.81
2017-12-23T13:39:41.705Z,9.84
2017-12-23T13:40:50.310Z,9.81
2017-12-23T13:41:58.925Z,9.82
2017-12-23T13:43:07.526Z,9.85
2017-12-23T13:44:16.377Z,9.88
2017-12-23T13:45:24.993Z,9.84
2017-12-23T13:46:33.597Z,9.84
2017-12-23T13:47:42.198Z,9.85
2017-12-23T13:48:50.810Z,9.77
2017-12-23T13:49:59.418Z,9.72
2017-12-23T13:51:08.268Z,9.8
2017-12-23T13:52:16.878Z,9.81
2017-12-23T13:53:25.499Z,9.85
2017-12-23T13:54:34.091Z,9.87
2017-12-23T13:55:42.699Z,9.9
2017-12-23T13:56:51.294Z,9.8
2017-12-23T13:58:00.171Z,9.88
2017-12-23T13:59:08.785Z,9.85
2017-12-23T14:00:17.377Z,9.77
2017-12-23T14:01:25.992Z,9.81
2017-12-23T14:02:34.597Z,9.76
2017-12-23T14:03:43.195Z,9.85
2017-12-23T14:04:51.804Z,9.81
2017-12-23T14:06:00.419Z,9.74
2017-12-23T14:07:09.014Z,9.72
2017-12-23T14:08:17.619Z,9.82
2017-12-23T14:09:26.236Z,9.73
2017-12-23T14:10:35.094Z,9.82
2017-12-23T14:11:43.705Z,9.8
2017-12-23T14:12:52.296Z,9.81
2017-12-23T14:14:01.162Z,9.73
2017-12-23T14:15:10.036Z,9.72
2017-12-23T14:16:18.637Z,9.73
2017-12-23T14:17:27.239Z,9.76
2017-12-23T14:18:36.116Z,9.77
2017-12-23T14:19:44.713Z,9.69
2017-12-23T14:20:53.311Z,9.74
2017-12-23T14:22:01.925Z,9.72
2017-12-23T14:23:10.532Z,9.7
2017-12-23T14:24:19.128Z,9.8
2017-12-23T14:25:27.746Z,9.73
2017-12-23T14:26:36.351Z,9.67
2017-12-23T14:27:44.968Z,9.7
2017-12-23T14:28:53.564Z,9.64
2017-12-23T14:30:02.436Z,9.7
2017-12-23T14:31:11.308Z,9.74
2017-12-23T14:32:19.917Z,9.7
2017-12-23T14:33:28.505Z,9.69
2017-12-23T14:34:37.122Z,9.64
2017-12-23T14:35:45.726Z,9.76
2017-12-23T14:36:54.321Z,9.69
2017-12-23T14:38:02.934Z,9.74
2017-12-23T14:39:11.544Z,9.73
2017-12-23T14:40:20.145Z,9.73
2017-12-23T14:41:28.750Z,9.73
2017-12-23T14:42:37.346Z,9.74
2017-12-23T14:43:45.963Z,9.76
2017-12-23T14:44:54.569Z,9.73
2017-12-23T14:46:03.165Z,9.67
2017-12-23T14:47:11.775Z,9.74
2017-12-23T14:48:20.388Z,9.73
2017-12-23T14:49:28.978Z,9.63
2017-12-23T14:50:37.584Z,9.66
2017-12-23T14:51:46.202Z,9.63
2017-12-23T14:52:55.056Z,9.64
2017-12-23T14:54:03.665Z,9.66
2017-12-23T14:55:12.263Z,9.64
2017-12-23T14:56:21.135Z,9.63
2017-12-23T14:57:29.749Z,9.64
2017-12-23T14:58:38.344Z,9.67
2017-12-23T14:59:46.951Z,9.64
2017-12-23T15:00:55.830Z,9.63
2017-12-23T15:02:04.683Z,9.67
2017-12-23T15:03:13.286Z,9.66
2017-12-23T15:04:21.906Z,9.59
2017-12-23T15:05:30.506Z,9.66
2017-12-23T15:06:39.106Z,9.56
2017-12-23T15:07:47.718Z,9.59
2017-12-23T15:08:56.319Z,9.64
2017-12-23T15:10:04.936Z,9.62
2017-12-23T15:11:13.787Z,9.63
2017-12-23T15:12:22.391Z,9.59
2017-12-23T15:13:31.006Z,9.58
2017-12-23T15:14:39.605Z,9.62
2017-12-23T15:15:48.206Z,9.52
2017-12-23T15:16:56.825Z,9.49